Time;durP1;ratioP1;P1;durP2;ratioP2;P2;SDS_P1;SDS_P2;PMS_P1;PMS_P2;Temp;Humidity;BMP_temperature;BMP_pressure;BME280_temperature;BME280_humidity;BME280_pressure;Samples;Min_cycle;Max_cycle;Signal;HPM_P1;HPM_P2
2021/07/05 00:02:08;;;;;;;2.00;1.90;;;21.70;68.10;;;;;;5055035;28;20179;-70
2021/07/05 00:04:34;;;;;;;2.00;1.90;;;21.60;68.00;;;;;;5054051;28;20171;-70
2021/07/05 00:07:00;;;;;;;1.70;1.60;;;21.70;68.10;;;;;;5055294;28;20221;-71
2021/07/05 00:09:25;;;;;;;1.90;1.60;;;21.60;68.00;;;;;;5055351;28;20254;-72
2021/07/05 00:11:51;;;;;;;1.90;1.80;;;21.60;68.00;;;;;;5054510;28;20574;-72
2021/07/05 00:14:16;;;;;;;2.03;1.83;;;21.70;68.10;;;;;;5055460;28;20186;-72
2021/07/05 00:16:42;;;;;;;1.80;1.70;;;21.60;68.00;;;;;;5054243;28;20174;-71
2021/07/05 00:19:07;;;;;;;1.52;1.42;;;21.60;68.00;;;;;;5054751;28;20680;-71
2021/07/05 00:21:33;;;;;;;1.77;1.67;;;21.60;68.00;;;;;;5054656;28;20179;-71
2021/07/05 00:23:58;;;;;;;1.58;1.48;;;21.60;68.00;;;;;;5054144;28;20217;-71
2021/07/05 00:26:24;;;;;;;1.88;1.65;;;21.60;68.00;;;;;;5055113;28;20198;-70
2021/07/05 00:28:49;;;;;;;1.88;1.77;;;21.60;68.00;;;;;;5054834;28;20190;-70
2021/07/05 00:31:15;;;;;;;1.52;1.42;;;21.60;68.00;;;;;;5054293;28;20172;-70
2021/07/05 00:33:40;;;;;;;1.50;1.40;;;21.60;68.00;;;;;;5054689;28;20171;-70
2021/07/05 00:36:06;;;;;;;1.65;1.50;;;21.60;68.00;;;;;;5054818;28;20544;-71
2021/07/05 00:38:31;;;;;;;2.08;1.88;;;21.60;68.00;;;;;;5053570;28;20207;-70
2021/07/05 00:40:57;;;;;;;1.55;1.45;;;21.60;67.90;;;;;;5054831;28;20175;-70
2021/07/05 00:43:22;;;;;;;2.15;2.05;;;21.60;68.00;;;;;;5054796;28;20171;-71
2021/07/05 00:45:48;;;;;;;3.08;1.63;;;21.50;67.90;;;;;;5053577;28;20175;-71
2021/07/05 00:48:14;;;;;;;1.70;1.60;;;21.60;67.90;;;;;;5054721;28;20218;-71
2021/07/05 00:50:39;;;;;;;1.83;1.70;;;21.60;67.90;;;;;;5054351;28;20635;-71
2021/07/05 00:53:05;;;;;;;1.95;1.85;;;21.60;67.90;;;;;;5053622;28;20179;-71
2021/07/05 00:55:32;;;;;;;1.60;1.50;;;21.60;67.90;;;;;;5053280;28;20634;-71
2021/07/05 00:57:58;;;;;;;1.73;1.63;;;21.60;67.90;;;;;;5054527;28;20254;-71
2021/07/05 01:00:24;;;;;;;1.77;1.45;;;21.60;67.90;;;;;;5053634;28;20298;-70
2021/07/05 01:02:51;;;;;;;1.77;1.67;;;21.60;67.90;;;;;;5054088;28;20175;-70
2021/07/05 01:05:17;;;;;;;1.70;1.60;;;21.60;67.90;;;;;;5054170;28;20262;-70
2021/07/05 01:07:43;;;;;;;1.60;1.50;;;21.50;67.80;;;;;;5053126;28;20610;-71
2021/07/05 01:10:09;;;;;;;1.75;1.65;;;21.50;67.80;;;;;;5054042;28;20185;-71
2021/07/05 01:12:34;;;;;;;1.80;1.70;;;21.60;67.90;;;;;;5053936;28;20210;-72
2021/07/05 01:15:00;;;;;;;1.75;1.65;;;21.50;67.80;;;;;;5053401;28;20266;-71
2021/07/05 01:17:26;;;;;;;1.65;1.48;;;21.50;67.80;;;;;;5053938;28;20685;-71
2021/07/05 01:19:51;;;;;;;1.70;1.60;;;21.50;67.80;;;;;;5052666;28;20277;-72
2021/07/05 01:22:17;;;;;;;1.85;1.75;;;21.50;67.80;;;;;;5053813;28;20217;-71
2021/07/05 01:24:43;;;;;;;1.70;1.60;;;21.50;67.80;;;;;;5054036;28;20179;-71
2021/07/05 01:27:09;;;;;;;1.45;1.35;;;21.50;67.80;;;;;;5051856;28;20963;-70
2021/07/05 01:29:34;;;;;;;1.83;1.73;;;21.50;67.80;;;;;;5053451;28;20175;-70
2021/07/05 01:32:00;;;;;;;1.50;1.40;;;21.50;67.80;;;;;;5053709;28;20175;-70
2021/07/05 01:34:25;;;;;;;2.30;1.38;;;21.50;67.70;;;;;;5052914;28;20213;-69
2021/07/05 01:36:53;;;;;;;1.50;1.40;;;21.50;67.70;;;;;;5053279;28;20629;-70
2021/07/05 01:39:19;;;;;;;1.92;1.83;;;21.50;67.80;;;;;;5053699;28;20214;-70
2021/07/05 01:41:45;;;;;;;1.92;1.38;;;21.50;67.80;;;;;;5052674;28;20171;-70
2021/07/05 01:44:11;;;;;;;1.50;1.40;;;21.50;67.80;;;;;;5053605;28;20302;-70
2021/07/05 01:46:36;;;;;;;1.60;1.50;;;21.50;67.70;;;;;;5053162;28;20670;-71
2021/07/05 01:49:02;;;;;;;1.60;1.50;;;21.50;67.70;;;;;;5052767;28;20185;-71
2021/07/05 01:51:31;;;;;;;1.70;1.60;;;21.50;67.70;;;;;;5053257;28;20225;-71
2021/07/05 01:53:56;;;;;;;1.40;1.30;;;21.50;67.80;;;;;;5053500;28;20542;-72
2021/07/05 01:56:22;;;;;;;1.40;1.30;;;21.50;67.70;;;;;;5052749;28;20167;-71
2021/07/05 01:58:48;;;;;;;1.77;1.67;;;21.50;67.70;;;;;;5052894;28;20238;-70
2021/07/05 02:01:13;;;;;;;1.23;1.23;;;21.50;68.60;;;;;;5053369;28;20194;-71
2021/07/05 02:03:39;;;;;;;1.70;1.60;;;21.50;67.70;;;;;;5052079;28;20175;-70
2021/07/05 02:06:04;;;;;;;1.63;1.52;;;21.50;67.70;;;;;;5053236;28;20178;-71
2021/07/05 02:08:29;;;;;;;1.45;1.35;;;21.50;67.70;;;;;;5053147;28;20197;-72
2021/07/05 02:10:55;;;;;;;1.38;1.20;;;21.50;67.70;;;;;;5052265;28;20585;-72
2021/07/05 02:13:23;;;;;;;1.48;1.38;;;21.40;67.60;;;;;;5053117;28;20621;-72
2021/07/05 02:15:50;;;;;;;1.58;1.48;;;21.40;67.60;;;;;;5051490;28;20167;-71
2021/07/05 02:18:15;;;;;;;1.65;1.55;;;21.50;67.70;;;;;;5051948;28;20185;-71
2021/07/05 02:20:41;;;;;;;1.50;1.40;;;21.40;67.70;;;;;;5052596;28;20183;-71
2021/07/05 02:23:12;;;;;;;1.38;1.27;;;21.40;67.70;;;;;;5052595;28;20261;-71
2021/07/05 02:25:38;;;;;;;1.70;1.60;;;21.40;67.70;;;;;;5052424;28;20189;-71
2021/07/05 02:28:11;;;;;;;1.42;1.33;;;21.40;67.60;;;;;;5052974;28;20174;-70
2021/07/05 02:30:37;;;;;;;1.55;1.45;;;21.40;67.60;;;;;;5052077;28;20182;-70
2021/07/05 02:33:02;;;;;;;1.50;1.40;;;21.50;67.70;;;;;;5052696;28;20177;-70
2021/07/05 02:35:29;;;;;;;1.42;1.33;;;21.40;67.60;;;;;;5052926;28;20175;-70
2021/07/05 02:37:55;;;;;;;1.30;1.30;;;21.40;67.60;;;;;;5052156;28;20171;-71
2021/07/05 02:40:22;;;;;;;1.48;1.38;;;21.40;67.70;;;;;;5052803;28;20222;-72
2021/07/05 02:42:47;;;;;;;1.30;1.20;;;21.40;67.60;;;;;;5052486;28;20570;-71
2021/07/05 02:45:18;;;;;;;1.17;1.10;;;21.40;67.60;;;;;;5051990;28;20179;-71
2021/07/05 02:47:44;;;;;;;1.25;1.15;;;21.40;67.60;;;;;;5052457;28;20198;-71
2021/07/05 02:50:10;;;;;;;1.38;1.27;;;21.40;67.60;;;;;;5052542;28;20632;-71
2021/07/05 02:52:36;;;;;;;1.40;1.30;;;21.40;67.60;;;;;;5051833;28;20182;-71
2021/07/05 02:55:01;;;;;;;1.20;1.10;;;21.40;67.60;;;;;;5052618;28;20182;-72
2021/07/05 02:57:30;;;;;;;1.33;1.23;;;21.40;67.60;;;;;;5052608;28;20183;-72
2021/07/05 03:00:16;;;;;;;1.52;1.30;;;21.40;67.60;;;;;;5051648;28;20677;-71
2021/07/05 03:02:44;;;;;;;1.40;1.15;;;21.40;67.60;;;;;;5052542;28;20179;-71
2021/07/05 03:05:10;;;;;;;1.10;1.10;;;21.40;67.60;;;;;;5052734;28;20183;-70
2021/07/05 03:07:36;;;;;;;1.58;1.48;;;21.40;67.60;;;;;;5051563;28;20516;-72
2021/07/05 03:10:03;;;;;;;1.50;1.40;;;21.40;67.60;;;;;;5052683;28;20183;-72
2021/07/05 03:12:28;;;;;;;1.73;1.33;;;21.40;67.60;;;;;;5051687;28;20182;-74
2021/07/05 03:14:54;;;;;;;1.30;1.20;;;21.40;67.60;;;;;;5052429;28;20171;-73
2021/07/05 03:17:20;;;;;;;1.52;1.42;;;21.40;67.60;;;;;;5052533;28;20168;-72
2021/07/05 03:19:45;;;;;;;2.17;1.35;;;21.40;67.60;;;;;;5051190;28;20602;-73
2021/07/05 03:22:11;;;;;;;1.30;1.30;;;21.40;67.60;;;;;;5052515;28;20521;-72
2021/07/05 03:24:36;;;;;;;1.45;1.35;;;21.40;67.60;;;;;;5052059;28;20179;-72
2021/07/05 03:27:02;;;;;;;1.58;1.48;;;21.40;67.60;;;;;;5051700;28;20187;-71
2021/07/05 03:29:28;;;;;;;1.50;1.40;;;21.40;67.60;;;;;;5052734;28;20266;-71
2021/07/05 03:31:56;;;;;;;1.50;1.40;;;21.40;67.60;;;;;;5051994;28;20720;-71
2021/07/05 03:34:22;;;;;;;1.40;1.30;;;21.40;67.60;;;;;;5051697;28;20199;-72
2021/07/05 03:36:47;;;;;;;1.40;1.30;;;21.40;67.60;;;;;;5051973;28;20198;-72
2021/07/05 03:39:13;;;;;;;2.83;1.10;;;21.40;67.60;;;;;;5055049;28;20295;-71
2021/07/05 03:41:44;;;;;;;0.90;0.90;;;21.40;67.60;;;;;;5054892;28;20701;-71
2021/07/05 03:44:09;;;;;;;1.60;1.50;;;21.40;67.60;;;;;;5056093;28;20175;-73
2021/07/05 03:46:35;;;;;;;1.35;1.25;;;21.40;67.50;;;;;;5055697;28;20532;-71
2021/07/05 03:49:00;;;;;;;1.17;1.10;;;21.40;67.50;;;;;;5055218;28;20175;-72
2021/07/05 03:51:26;;;;;;;1.13;1.05;;;21.40;67.60;;;;;;5055704;28;20179;-72
2021/07/05 03:53:51;;;;;;;1.75;1.63;;;21.40;67.50;;;;;;5055416;28;20201;-72
2021/07/05 03:56:17;;;;;;;1.15;1.02;;;21.40;67.50;;;;;;5054913;28;20175;-72
2021/07/05 03:58:42;;;;;;;1.10;0.98;;;21.50;67.60;;;;;;5055266;28;20627;-72
2021/07/05 04:01:08;;;;;;;1.83;1.38;;;21.40;67.50;;;;;;5055708;28;20221;-71
2021/07/05 04:03:33;;;;;;;1.00;1.00;;;21.40;67.50;;;;;;5054594;28;20179;-70
2021/07/05 04:05:59;;;;;;;1.10;1.00;;;21.40;67.50;;;;;;5055438;28;20635;-70
2021/07/05 04:08:27;;;;;;;0.90;0.90;;;21.30;67.50;;;;;;5055461;28;20598;-72
2021/07/05 04:10:53;;;;;;;1.55;1.35;;;21.30;67.50;;;;;;5054295;28;20202;-73
2021/07/05 04:13:21;;;;;;;1.40;1.30;;;21.30;67.50;;;;;;5055505;28;20206;-73
2021/07/05 04:15:47;;;;;;;1.40;1.30;;;21.30;67.50;;;;;;5054587;28;20182;-73
2021/07/05 04:18:13;;;;;;;1.35;1.20;;;21.30;67.50;;;;;;5054121;28;20175;-72
2021/07/05 04:20:44;;;;;;;1.58;1.00;;;21.30;67.50;;;;;;5053983;28;20210;-72
2021/07/05 04:23:09;;;;;;;0.95;0.95;;;21.30;67.50;;;;;;5054487;28;20221;-72
2021/07/05 04:25:35;;;;;;;1.35;1.30;;;21.30;67.50;;;;;;5054714;28;20254;-72
2021/07/05 04:28:01;;;;;;;1.15;1.15;;;21.30;67.50;;;;;;5055132;28;20258;-73
2021/07/05 04:30:27;;;;;;;1.60;1.23;;;21.30;67.50;;;;;;5054367;28;20267;-71
2021/07/05 04:32:56;;;;;;;1.23;1.20;;;21.30;67.50;;;;;;5054855;28;20171;-73
2021/07/05 04:35:22;;;;;;;1.20;1.10;;;21.30;67.50;;;;;;5054843;28;20179;-71
2021/07/05 04:37:48;;;;;;;1.10;1.00;;;21.30;67.50;;;;;;5053969;28;20171;-70
2021/07/05 04:40:16;;;;;;;1.35;1.25;;;21.30;67.50;;;;;;5054633;28;20222;-71
2021/07/05 04:42:41;;;;;;;1.13;1.13;;;21.30;67.50;;;;;;5054347;28;20624;-72
2021/07/05 04:45:08;;;;;;;1.27;1.13;;;21.30;67.40;;;;;;5054029;28;20207;-72
2021/07/05 04:47:34;;;;;;;1.38;1.27;;;21.30;67.50;;;;;;5054428;28;20260;-71
2021/07/05 04:49:59;;;;;;;1.00;1.00;;;21.30;67.40;;;;;;5054176;28;20211;-71
2021/07/05 04:52:25;;;;;;;1.38;1.27;;;21.30;67.40;;;;;;5053877;28;20203;-72
2021/07/05 04:54:50;;;;;;;1.17;1.10;;;21.30;67.50;;;;;;5054114;28;20171;-71
2021/07/05 04:57:16;;;;;;;1.17;1.17;;;21.30;67.40;;;;;;5054872;28;20667;-72
2021/07/05 04:59:41;;;;;;;1.20;1.10;;;21.30;68.30;;;;;;5053692;28;20211;-72
2021/07/05 05:02:07;;;;;;;1.48;1.27;;;21.30;67.40;;;;;;5055053;28;20178;-70
2021/07/05 05:04:32;;;;;;;1.00;1.00;;;21.30;67.40;;;;;;5052130;28;20187;-71
2021/07/05 05:06:58;;;;;;;1.00;1.00;;;21.30;67.40;;;;;;5054235;28;20533;-70
2021/07/05 05:09:24;;;;;;;1.13;0.98;;;21.30;67.40;;;;;;5054166;28;20179;-71
2021/07/05 05:11:50;;;;;;;1.23;1.13;;;21.30;67.40;;;;;;5053985;28;20178;-72
2021/07/05 05:14:17;;;;;;;1.23;1.17;;;21.30;67.40;;;;;;5053866;28;20187;-71
2021/07/05 05:16:42;;;;;;;1.50;1.00;;;21.30;67.40;;;;;;5053848;28;20175;-71
2021/07/05 05:19:08;;;;;;;0.95;0.93;;;21.30;67.40;;;;;;5053310;28;20235;-73
2021/07/05 05:21:33;;;;;;;1.33;1.08;;;21.30;67.40;;;;;;5053532;28;20175;-70
2021/07/05 05:24:00;;;;;;;1.02;0.93;;;21.30;67.40;;;;;;5054066;28;20526;-70
2021/07/05 05:26:25;;;;;;;1.20;1.00;;;21.30;67.40;;;;;;5053296;28;20171;-70
2021/07/05 05:28:51;;;;;;;1.20;1.10;;;21.20;67.30;;;;;;5053683;28;20178;-71
2021/07/05 05:31:16;;;;;;;1.58;1.48;;;21.20;67.30;;;;;;5053824;28;20179;-70
2021/07/05 05:33:42;;;;;;;0.93;0.93;;;21.20;67.30;;;;;;5052653;28;20182;-70
2021/07/05 05:36:07;;;;;;;3.42;1.30;;;21.20;67.30;;;;;;5053672;28;20542;-71
2021/07/05 05:38:33;;;;;;;1.08;0.98;;;21.20;67.30;;;;;;5053186;28;20217;-71
2021/07/05 05:40:58;;;;;;;1.10;1.00;;;21.20;67.40;;;;;;5052921;28;20210;-73
2021/07/05 05:43:24;;;;;;;1.10;1.00;;;21.20;67.30;;;;;;5053562;28;20202;-72
2021/07/05 05:45:49;;;;;;;1.20;1.02;;;21.20;67.30;;;;;;5053407;28;20205;-72
2021/07/05 05:48:15;;;;;;;1.38;1.30;;;21.30;67.40;;;;;;5052741;28;20175;-72
2021/07/05 05:50:40;;;;;;;1.38;1.13;;;21.20;67.30;;;;;;5053227;28;20202;-71
2021/07/05 05:53:06;;;;;;;0.80;0.80;;;21.20;67.30;;;;;;5053278;28;20211;-72
2021/07/05 05:55:31;;;;;;;0.82;0.82;;;21.20;67.30;;;;;;5052544;28;20258;-71
2021/07/05 05:57:57;;;;;;;1.00;1.00;;;21.20;67.30;;;;;;5053455;28;20698;-71
2021/07/05 06:00:24;;;;;;;0.93;0.93;;;21.20;67.30;;;;;;5052562;28;20213;-71
2021/07/05 06:02:50;;;;;;;2.17;1.05;;;21.20;67.30;;;;;;5052078;28;20653;-70
2021/07/05 06:05:15;;;;;;;1.40;1.20;;;21.20;67.20;;;;;;5053217;28;20214;-72
2021/07/05 06:07:46;;;;;;;1.02;1.00;;;21.20;67.20;;;;;;5052721;28;20550;-72
2021/07/05 06:10:12;;;;;;;1.30;1.20;;;21.30;67.30;;;;;;5052589;28;20186;-74
2021/07/05 06:12:37;;;;;;;1.60;1.10;;;21.30;67.30;;;;;;5052906;28;20179;-71
2021/07/05 06:15:07;;;;;;;1.13;1.00;;;21.20;67.20;;;;;;5053571;28;20175;-70
2021/07/05 06:17:32;;;;;;;0.80;0.80;;;21.20;67.20;;;;;;5052307;28;20187;-70
2021/07/05 06:19:59;;;;;;;1.20;1.10;;;21.20;67.20;;;;;;5051372;28;20596;-70
2021/07/05 06:22:31;;;;;;;1.30;1.20;;;21.20;67.20;;;;;;5052395;28;20183;-66
2021/07/05 06:24:57;;;;;;;2.30;1.30;;;21.30;67.30;;;;;;5053064;28;20185;-66
2021/07/05 06:27:23;;;;;;;1.00;1.00;;;21.30;67.20;;;;;;5053031;28;20167;-70
2021/07/05 06:29:48;;;;;;;1.23;0.95;;;21.30;67.30;;;;;;5052234;28;20176;-70
2021/07/05 06:32:14;;;;;;;1.40;1.33;;;21.30;67.40;;;;;;5052927;28;20224;-68
2021/07/05 06:34:40;;;;;;;1.00;0.90;;;21.30;68.10;;;;;;5052369;28;20209;-65
2021/07/05 06:37:06;;;;;;;2.10;1.23;;;21.30;67.40;;;;;;5051907;28;20244;-66
2021/07/05 06:39:31;;;;;;;1.38;1.27;;;21.30;67.50;;;;;;5052553;28;20258;-68
2021/07/05 06:41:57;;;;;;;2.15;1.10;;;21.30;67.50;;;;;;5052847;28;20198;-69
2021/07/05 06:44:22;;;;;;;1.75;1.15;;;21.40;67.50;;;;;;5052072;28;20179;-71
2021/07/05 06:46:48;;;;;;;2.67;1.23;;;21.30;67.30;;;;;;5052483;28;20168;-71
2021/07/05 06:49:17;;;;;;;2.35;1.25;;;21.40;67.40;;;;;;5052716;28;20179;-71
2021/07/05 06:51:44;;;;;;;6.15;1.50;;;21.40;67.70;;;;;;5051842;28;20233;-71
2021/07/05 06:54:09;;;;;;;2.17;1.30;;;21.30;67.50;;;;;;5052645;28;20175;-70
2021/07/05 06:56:35;;;;;;;3.33;1.35;;;21.30;67.50;;;;;;5052440;28;20175;-70
2021/07/05 06:59:00;;;;;;;2.05;1.10;;;21.30;67.40;;;;;;5051964;28;20202;-69
2021/07/05 07:01:26;;;;;;;4.70;1.38;;;21.30;67.40;;;;;;5052532;28;20653;-69
2021/07/05 07:03:51;;;;;;;1.30;1.17;;;21.30;67.50;;;;;;5051063;28;20179;-69
2021/07/05 07:06:17;;;;;;;2.58;1.08;;;21.30;67.40;;;;;;5052012;28;20186;-68
2021/07/05 07:08:42;;;;;;;2.45;1.20;;;21.30;67.40;;;;;;5052342;28;20183;-71
2021/07/05 07:11:08;;;;;;;3.25;1.83;;;21.30;67.40;;;;;;5052290;28;20532;-71
2021/07/05 07:13:34;;;;;;;1.58;1.13;;;21.30;67.70;;;;;;5054075;28;20176;-71
2021/07/05 07:16:01;;;;;;;2.55;1.15;;;21.30;67.50;;;;;;5056380;28;20205;-71
2021/07/05 07:20:58;;;;;;;1.02;0.95;;;21.30;68.30;;;;;;5056022;28;20190;-70
2021/07/05 07:23:23;;;;;;;3.53;1.33;;;21.30;67.40;;;;;;5056402;28;20179;-70
2021/07/05 07:25:49;;;;;;;3.75;1.27;;;21.30;67.30;;;;;;5055312;28;20602;-69
2021/07/05 07:28:15;;;;;;;2.63;1.02;;;21.40;67.50;;;;;;5056398;28;20186;-69
2021/07/05 07:30:40;;;;;;;2.33;0.90;;;21.40;67.40;;;;;;5055750;28;20182;-68
2021/07/05 07:33:06;;;;;;;2.15;1.25;;;21.40;67.30;;;;;;5055248;28;20276;-69
2021/07/05 07:35:31;;;;;;;1.40;1.30;;;21.40;67.30;;;;;;5055706;28;20183;-70
2021/07/05 07:37:57;;;;;;;1.33;1.15;;;21.40;67.20;;;;;;5056139;28;20171;-69
2021/07/05 07:40:45;;;;;;;1.77;1.00;;;21.50;67.20;;;;;;5055004;28;20207;-70
2021/07/05 07:43:08;;;;;;;1.75;1.20;;;21.40;67.10;;;;;;5055615;28;20179;-70
2021/07/05 07:45:34;;;;;;;1.17;1.02;;;21.40;67.10;;;;;;5055384;28;20536;-70
2021/07/05 07:47:59;;;;;;;1.88;1.23;;;21.40;67.10;;;;;;5054966;28;20179;-70
2021/07/05 07:50:25;;;;;;;1.38;1.23;;;21.40;67.20;;;;;;5055898;28;20171;-71
2021/07/05 07:52:50;;;;;;;1.83;1.20;;;21.40;67.20;;;;;;5055440;28;20549;-71
2021/07/05 07:55:16;;;;;;;1.67;1.35;;;21.50;67.20;;;;;;5054959;28;20178;-71
2021/07/05 07:57:42;;;;;;;2.58;1.20;;;21.40;67.10;;;;;;5055265;28;20685;-70
2021/07/05 08:00:11;;;;;;;1.50;1.40;;;21.50;67.10;;;;;;5055223;28;20210;-70
2021/07/05 08:02:37;;;;;;;2.20;1.30;;;21.50;67.10;;;;;;5054677;28;20178;-69
2021/07/05 08:05:03;;;;;;;1.27;1.17;;;21.50;67.10;;;;;;5055353;28;20179;-70
2021/07/05 08:07:32;;;;;;;2.72;1.40;;;21.50;67.00;;;;;;5055394;28;20202;-70
2021/07/05 08:09:57;;;;;;;2.83;1.48;;;21.50;67.00;;;;;;5054563;28;20187;-71
2021/07/05 08:12:23;;;;;;;1.55;1.10;;;21.50;66.90;;;;;;5055055;28;20514;-72
2021/07/05 08:14:48;;;;;;;2.60;1.40;;;21.60;66.90;;;;;;5054067;28;20179;-71
2021/07/05 08:17:17;;;;;;;1.92;1.30;;;21.60;66.90;;;;;;5055406;28;20167;-71
2021/07/05 08:19:42;;;;;;;1.33;1.20;;;21.60;66.80;;;;;;5054822;28;20238;-71
2021/07/05 08:22:08;;;;;;;1.30;1.20;;;21.60;66.80;;;;;;5054554;28;20171;-70
2021/07/05 08:24:34;;;;;;;1.45;1.20;;;21.60;66.80;;;;;;5054051;28;20266;-70
2021/07/05 08:26:59;;;;;;;2.88;1.52;;;21.60;66.90;;;;;;5054993;28;20313;-69
2021/07/05 08:29:25;;;;;;;3.38;1.35;;;21.60;66.90;;;;;;5054272;28;20174;-69
2021/07/05 08:31:50;;;;;;;2.85;1.35;;;21.60;66.90;;;;;;5055091;28;20252;-69
2021/07/05 08:34:16;;;;;;;1.85;1.27;;;21.60;66.90;;;;;;5054934;28;20175;-69
2021/07/05 08:36:42;;;;;;;1.55;1.08;;;21.60;66.90;;;;;;5054031;28;20232;-70
2021/07/05 08:39:08;;;;;;;1.75;1.30;;;21.60;66.90;;;;;;5055116;28;20198;-70
2021/07/05 08:41:34;;;;;;;1.88;1.10;;;21.60;67.00;;;;;;5054567;28;20175;-70
2021/07/05 08:43:59;;;;;;;1.98;1.48;;;21.60;67.80;;;;;;5054044;28;20178;-70
2021/07/05 08:46:25;;;;;;;1.30;1.20;;;21.60;67.00;;;;;;5053582;28;20198;-69
2021/07/05 08:48:51;;;;;;;1.13;1.02;;;21.60;67.00;;;;;;5053077;28;20175;-70
2021/07/05 08:51:20;;;;;;;1.20;1.10;;;21.60;67.00;;;;;;5053927;28;20164;-70
2021/07/05 08:53:47;;;;;;;1.60;1.50;;;21.60;67.00;;;;;;5054305;28;20254;-70
2021/07/05 08:56:12;;;;;;;2.20;1.30;;;21.60;67.00;;;;;;5054413;28;20176;-71
2021/07/05 08:58:41;;;;;;;1.80;1.48;;;21.60;67.00;;;;;;5053040;28;20663;-69
2021/07/05 09:01:09;;;;;;;1.95;1.15;;;21.60;66.90;;;;;;5054505;28;20171;-69
2021/07/05 09:03:35;;;;;;;1.95;1.38;;;21.70;66.90;;;;;;5054117;28;20175;-69
2021/07/05 09:06:11;;;;;;;1.75;1.30;;;21.60;66.80;;;;;;5053716;28;20171;-69
2021/07/05 09:08:39;;;;;;;1.40;1.30;;;21.70;67.00;;;;;;5054059;28;20228;-70
2021/07/05 09:11:09;;;;;;;1.27;1.10;;;21.70;66.90;;;;;;5053869;28;20202;-71
2021/07/05 09:13:51;;;;;;;2.25;1.48;;;21.70;66.80;;;;;;5053950;28;20625;-71
2021/07/05 09:16:31;;;;;;;1.17;1.10;;;21.70;66.80;;;;;;5054219;28;20599;-72
2021/07/05 09:19:01;;;;;;;1.40;1.30;;;21.70;66.80;;;;;;5053011;28;20279;-71
2021/07/05 09:21:28;;;;;;;2.22;1.40;;;21.70;66.70;;;;;;5053879;28;20175;-71
2021/07/05 09:24:05;;;;;;;1.67;1.42;;;21.80;66.70;;;;;;5053798;28;20181;-70
2021/07/05 09:26:31;;;;;;;2.55;1.20;;;21.80;66.60;;;;;;5052912;28;20189;-69
2021/07/05 09:29:01;;;;;;;1.70;1.50;;;21.80;66.50;;;;;;5054005;28;20193;-70
2021/07/05 09:31:36;;;;;;;2.63;1.60;;;21.90;66.30;;;;;;5053915;28;20179;-69
2021/07/05 09:34:03;;;;;;;5.47;1.77;;;21.90;66.30;;;;;;5053038;28;20189;-69
2021/07/05 09:36:28;;;;;;;1.20;1.10;;;21.90;66.30;;;;;;5051470;28;20657;-70
2021/07/05 09:38:54;;;;;;;1.40;1.30;;;21.80;66.30;;;;;;5053313;28;20234;-69
2021/07/05 09:41:24;;;;;;;2.15;1.42;;;21.90;66.30;;;;;;5052968;28;20186;-70
2021/07/05 09:43:55;;;;;;;2.28;1.50;;;21.90;66.30;;;;;;5053288;28;20260;-70
2021/07/05 09:46:34;;;;;;;1.23;1.13;;;21.90;66.30;;;;;;5052729;28;20206;-70
2021/07/05 09:49:08;;;;;;;1.50;1.38;;;21.90;66.30;;;;;;5053604;28;20178;-70
2021/07/05 09:51:35;;;;;;;2.13;1.50;;;21.90;66.20;;;;;;5053162;28;20203;-71
2021/07/05 09:54:00;;;;;;;3.10;1.27;;;21.90;66.20;;;;;;5052783;28;20557;-71
2021/07/05 09:56:27;;;;;;;1.35;1.25;;;21.90;66.20;;;;;;5053406;28;20653;-71
2021/07/05 09:58:54;;;;;;;1.70;1.50;;;21.90;66.30;;;;;;5052865;28;20202;-69
2021/07/05 10:01:39;;;;;;;1.63;1.20;;;21.90;66.30;;;;;;5052667;28;20538;-70
2021/07/05 10:04:09;;;;;;;1.02;1.02;;;21.90;66.30;;;;;;5053415;28;20179;-69
2021/07/05 10:06:40;;;;;;;2.10;1.20;;;21.90;66.30;;;;;;5053004;28;20186;-69
2021/07/05 10:09:06;;;;;;;2.15;1.60;;;21.90;66.20;;;;;;5052359;28;20209;-71
2021/07/05 10:11:32;;;;;;;2.30;1.40;;;21.90;66.20;;;;;;5052719;28;20179;-71
2021/07/05 10:14:13;;;;;;;1.45;1.08;;;21.90;66.30;;;;;;5051800;28;20183;-71
2021/07/05 10:16:39;;;;;;;2.17;1.40;;;21.90;66.30;;;;;;5052044;28;20225;-71
2021/07/05 10:19:05;;;;;;;2.33;1.33;;;21.90;66.40;;;;;;5051632;28;20280;-71
2021/07/05 10:21:30;;;;;;;1.42;1.33;;;21.90;66.30;;;;;;5051887;28;20569;-69
2021/07/05 10:23:56;;;;;;;1.67;1.45;;;21.90;66.30;;;;;;5051814;28;20202;-69
2021/07/05 10:26:21;;;;;;;1.50;1.40;;;22.00;66.40;;;;;;5051855;28;20233;-69
2021/07/05 10:28:47;;;;;;;1.90;1.20;;;22.00;66.40;;;;;;5054525;28;20178;-68
2021/07/05 10:31:12;;;;;;;1.45;1.35;;;22.00;66.40;;;;;;5063893;28;20174;-68
2021/07/05 10:33:38;;;;;;;1.58;1.35;;;22.00;66.30;;;;;;5060312;28;20179;-69
2021/07/05 10:36:06;;;;;;;1.65;1.48;;;22.00;66.20;;;;;;5052190;28;20516;-69
2021/07/05 10:38:37;;;;;;;1.30;1.20;;;22.00;66.20;;;;;;5052352;28;20174;-69
2021/07/05 10:41:13;;;;;;;2.35;1.45;;;22.00;66.20;;;;;;5055522;28;20182;-70
2021/07/05 10:43:53;;;;;;;1.80;1.65;;;22.00;66.00;;;;;;5071892;28;20180;-69
2021/07/05 10:46:42;;;;;;;1.40;1.30;;;22.10;66.10;;;;;;5061837;28;20183;-69
2021/07/05 10:49:27;;;;;;;3.10;1.70;;;22.10;66.00;;;;;;5057031;28;20179;-70
2021/07/05 10:51:53;;;;;;;2.67;1.42;;;22.10;66.00;;;;;;5056089;28;20171;-70
2021/07/05 10:54:45;;;;;;;1.70;1.55;;;22.10;66.00;;;;;;5055898;28;20170;-69
2021/07/05 10:57:11;;;;;;;1.98;1.40;;;22.10;66.00;;;;;;5055304;28;20625;-69
2021/07/05 10:59:40;;;;;;;2.15;1.58;;;22.10;66.00;;;;;;5055885;28;20239;-67
2021/07/05 11:02:41;;;;;;;2.67;1.52;;;22.10;66.10;;;;;;5056702;28;20175;-70
2021/07/05 11:05:28;;;;;;;1.75;1.25;;;22.10;66.00;;;;;;5059065;28;20183;-69
2021/07/05 11:07:55;;;;;;;2.13;1.40;;;22.20;66.10;;;;;;5056342;28;20244;-71
2021/07/05 11:10:26;;;;;;;1.63;1.50;;;22.10;66.20;;;;;;5055383;28;20175;-72
2021/07/05 11:13:04;;;;;;;2.15;1.48;;;22.10;66.20;;;;;;5055249;28;20175;-64
2021/07/05 11:15:46;;;;;;;2.17;1.40;;;22.20;66.40;;;;;;5055922;28;20590;-65
2021/07/05 11:18:51;;;;;;;1.98;1.75;;;22.20;66.20;;;;;;5055396;28;20179;-64
2021/07/05 11:21:23;;;;;;;3.00;1.60;;;22.10;65.80;;;;;;5056031;28;20270;-65
2021/07/05 11:23:55;;;;;;;2.00;1.80;;;22.10;65.80;;;;;;5055898;28;20183;-66
2021/07/05 11:26:22;;;;;;;2.72;2.13;;;22.10;65.80;;;;;;5055444;28;20263;-66
2021/07/05 11:28:48;;;;;;;2.35;1.80;;;22.10;65.60;;;;;;5055982;28;20227;-65
2021/07/05 11:31:21;;;;;;;3.50;2.00;;;22.10;65.70;;;;;;5054918;28;20179;-64
2021/07/05 11:33:46;;;;;;;2.35;1.90;;;22.10;65.40;;;;;;5055284;28;20171;-64
2021/07/05 11:36:21;;;;;;;4.65;2.30;;;22.10;65.60;;;;;;5056137;28;20178;-65
2021/07/05 11:39:01;;;;;;;5.35;2.63;;;22.10;65.70;;;;;;5074616;28;20180;-64
2021/07/05 11:41:28;;;;;;;3.75;2.35;;;22.10;65.20;;;;;;5075662;28;20614;-65
2021/07/05 11:44:02;;;;;;;4.40;2.40;;;22.10;65.00;;;;;;5075556;28;20524;-66
2021/07/05 11:46:28;;;;;;;4.63;2.88;;;22.10;64.70;;;;;;5075091;28;20193;-67
2021/07/05 11:48:58;;;;;;;3.53;2.40;;;22.10;64.70;;;;;;5075713;28;20174;-66
2021/07/05 11:51:57;;;;;;;4.65;2.78;;;22.10;64.80;;;;;;5075697;28;20173;-66
2021/07/05 11:54:33;;;;;;;6.57;2.17;;;22.00;64.80;;;;;;5072961;28;20265;-66
2021/07/05 11:57:01;;;;;;;6.25;2.58;;;22.00;64.80;;;;;;5075522;28;20603;-66
2021/07/05 11:59:28;;;;;;;5.00;2.80;;;22.00;64.90;;;;;;5056641;28;20569;-66
2021/07/05 12:01:55;;;;;;;2.40;2.17;;;21.90;64.80;;;;;;5074469;28;20704;-66
2021/07/05 12:04:25;;;;;;;4.45;2.40;;;21.90;65.00;;;;;;5075867;28;20178;-66
2021/07/05 12:06:51;;;;;;;3.10;2.67;;;21.90;65.10;;;;;;5074059;28;20544;-66
2021/07/05 12:09:17;;;;;;;3.20;2.47;;;21.90;65.00;;;;;;5074891;28;20172;-66
2021/07/05 12:11:47;;;;;;;5.03;2.50;;;21.90;65.10;;;;;;5075092;28;20235;-66
2021/07/05 12:14:21;;;;;;;4.78;2.50;;;21.90;65.10;;;;;;5074558;28;20182;-65
2021/07/05 12:16:58;;;;;;;3.08;2.35;;;21.90;65.00;;;;;;5075016;28;20261;-65
2021/07/05 12:19:24;;;;;;;5.18;2.72;;;21.90;64.80;;;;;;5074886;28;20295;-66
2021/07/05 12:21:55;;;;;;;4.15;2.42;;;21.90;64.80;;;;;;5074151;28;20172;-67
2021/07/05 12:24:31;;;;;;;3.63;2.33;;;22.00;64.70;;;;;;5075218;28;20174;-67
2021/07/05 12:27:01;;;;;;;5.78;3.10;;;22.10;64.60;;;;;;5075090;28;20189;-66
2021/07/05 12:29:33;;;;;;;4.25;2.13;;;22.10;64.30;;;;;;5074553;28;20584;-65
2021/07/05 12:32:01;;;;;;;3.20;2.80;;;22.20;64.20;;;;;;5075169;28;20224;-65
2021/07/05 12:34:47;;;;;;;3.78;2.60;;;22.20;64.20;;;;;;5075070;28;20175;-65
2021/07/05 12:37:18;;;;;;;6.03;2.67;;;22.20;64.20;;;;;;5065461;28;20175;-66
2021/07/05 12:39:49;;;;;;;3.17;2.25;;;22.30;64.10;;;;;;5054609;28;20256;-66
2021/07/05 12:42:23;;;;;;;3.95;2.53;;;22.30;64.00;;;;;;5054043;28;20625;-66
2021/07/05 12:44:49;;;;;;;2.72;2.50;;;22.30;63.90;;;;;;5054238;28;20237;-66
2021/07/05 12:47:14;;;;;;;2.97;2.03;;;22.40;63.80;;;;;;5053516;28;20628;-66
2021/07/05 12:49:40;;;;;;;3.40;2.63;;;22.50;63.80;;;;;;5053379;28;20208;-66
2021/07/05 12:52:07;;;;;;;3.58;2.22;;;22.50;63.80;;;;;;5054814;28;20636;-66
2021/07/05 12:54:33;;;;;;;3.20;2.20;;;22.50;63.80;;;;;;5054334;28;20171;-65